Time;durP1;ratioP1;P1;durP2;ratioP2;P2;SDS_P1;SDS_P2;PMS_P1;PMS_P2;Temp;Humidity;BMP_temperature;BMP_pressure;BME280_temperature;BME280_humidity;BME280_pressure;Samples;Min_cycle;Max_cycle;Signal;HPM_P1;HPM_P2
2021/03/24 00:01:26;;;;;;;16.98;10.73;;;179.50;1638.40;;;;;;5072048;28;20036;-66
2021/03/24 00:03:52;;;;;;;18.55;10.55;;;179.50;1638.40;;;;;;5071914;28;20103;-66
2021/03/24 00:06:19;;;;;;;18.90;11.15;;;179.50;1638.40;;;;;;5071837;28;20518;-66
2021/03/24 00:08:45;;;;;;;30.48;18.33;;;179.50;1638.40;;;;;;5071772;28;20029;-67
2021/03/24 00:11:13;;;;;;;15.77;10.23;;;179.60;1638.40;;;;;;5071955;28;20383;-69
2021/03/24 00:13:39;;;;;;;18.00;10.60;;;179.60;1638.40;;;;;;5071491;28;20044;-66
2021/03/24 00:16:06;;;;;;;22.10;12.63;;;179.60;1638.40;;;;;;5069931;28;20067;-70
2021/03/24 00:18:32;;;;;;;22.27;12.48;;;179.70;1638.40;;;;;;5071638;28;20028;-70
2021/03/24 00:20:58;;;;;;;17.38;10.18;;;179.60;1638.40;;;;;;5071287;28;20031;-69
2021/03/24 00:23:25;;;;;;;15.90;9.88;;;179.50;1638.40;;;;;;5071536;28;20059;-68
2021/03/24 00:25:51;;;;;;;16.50;10.38;;;179.50;1638.40;;;;;;5071529;28;20028;-68
2021/03/24 00:28:17;;;;;;;19.45;10.73;;;179.50;1638.40;;;;;;5071304;28;20104;-67
2021/03/24 00:30:45;;;;;;;16.58;9.45;;;179.50;1664.00;;;;;;5071744;28;20029;-69
2021/03/24 00:33:13;;;;;;;16.08;9.52;;;179.50;1664.00;;;;;;5071453;28;20478;-69
2021/03/24 00:35:40;;;;;;;17.58;10.07;;;179.50;1664.00;;;;;;5071241;28;20032;-69
2021/03/24 00:38:05;;;;;;;14.85;9.40;;;179.50;1664.00;;;;;;5071255;28;20020;-69
2021/03/24 00:40:37;;;;;;;13.57;9.10;;;179.40;1664.00;;;;;;5071334;28;20493;-69
2021/03/24 00:43:04;;;;;;;13.10;8.70;;;179.50;1664.00;;;;;;5071222;28;20028;-68
2021/03/24 00:45:31;;;;;;;15.10;9.38;;;179.50;1664.00;;;;;;5071276;28;20032;-68
2021/03/24 00:47:57;;;;;;;12.60;8.63;;;179.50;1664.00;;;;;;5070948;28;20025;-68
2021/03/24 00:50:25;;;;;;;13.60;9.32;;;179.50;1664.00;;;;;;5071203;28;20370;-69
2021/03/24 00:52:51;;;;;;;15.95;9.15;;;179.50;1664.00;;;;;;5071070;28;20147;-69
2021/03/24 00:55:18;;;;;;;13.98;9.25;;;179.40;1664.00;;;;;;5070950;28;20174;-69
2021/03/24 00:57:44;;;;;;;15.30;9.45;;;179.50;1664.00;;;;;;5071040;28;20029;-69
2021/03/24 01:00:19;;;;;;;16.27;9.32;;;179.40;1664.00;;;;;;5070965;28;20417;-69
2021/03/24 01:02:45;;;;;;;16.83;8.98;;;179.50;1664.00;;;;;;5070714;28;20518;-70
2021/03/24 01:05:14;;;;;;;13.05;9.50;;;179.50;1664.00;;;;;;5071111;28;20137;-70
2021/03/24 01:07:42;;;;;;;16.77;9.90;;;179.40;1689.60;;;;;;5071029;28;20032;-69
2021/03/24 01:10:14;;;;;;;14.95;9.95;;;179.50;1664.00;;;;;;5070080;28;20028;-70
2021/03/24 01:12:39;;;;;;;15.05;9.77;;;179.50;1664.00;;;;;;5070794;28;20024;-70
2021/03/24 01:15:06;;;;;;;14.77;9.38;;;179.40;1689.60;;;;;;5070516;28;20047;-70
2021/03/24 01:17:31;;;;;;;13.75;9.25;;;179.30;1715.20;;;;;;5070599;28;20048;-69
2021/03/24 01:19:57;;;;;;;16.98;9.70;;;179.30;1715.20;;;;;;5070407;28;20029;-68
2021/03/24 01:22:23;;;;;;;23.15;10.30;;;179.30;1740.80;;;;;;5070711;28;20475;-67
2021/03/24 01:24:48;;;;;;;17.73;10.02;;;179.30;1766.40;;;;;;5070468;28;20425;-68
2021/03/24 01:27:14;;;;;;;15.10;9.93;;;179.30;1817.60;;;;;;5070530;28;20036;-68
2021/03/24 01:29:40;;;;;;;13.20;9.65;;;179.30;1817.60;;;;;;5070578;28;20025;-68
2021/03/24 01:32:06;;;;;;;12.90;9.18;;;179.30;1817.60;;;;;;5070547;28;20471;-67
2021/03/24 01:34:31;;;;;;;12.88;9.40;;;179.30;1817.60;;;;;;5070861;28;20035;-68
2021/03/24 01:36:57;;;;;;;12.27;9.52;;;179.30;1792.00;;;;;;5070471;28;20107;-66
2021/03/24 01:39:23;;;;;;;13.18;9.23;;;179.30;1792.00;;;;;;5070690;28;20032;-68
2021/03/24 01:41:49;;;;;;;13.68;9.05;;;179.20;1817.60;;;;;;5070250;28;20028;-67
2021/03/24 01:44:14;;;;;;;14.82;9.93;;;179.20;1817.60;;;;;;5070520;28;20032;-67
2021/03/24 01:46:43;;;;;;;13.20;9.35;;;179.30;1817.60;;;;;;5070477;28;20482;-67
2021/03/24 01:49:12;;;;;;;15.35;9.95;;;179.20;1817.60;;;;;;5070292;28;20025;-67
2021/03/24 01:51:37;;;;;;;12.85;10.07;;;179.30;1817.60;;;;;;5070423;28;20025;-67
2021/03/24 01:54:08;;;;;;;13.15;9.20;;;179.20;1817.60;;;;;;5070678;28;20043;-67
2021/03/24 01:56:35;;;;;;;15.82;10.82;;;179.20;1843.20;;;;;;5068931;28;20443;-69
2021/03/24 01:59:01;;;;;;;14.15;11.45;;;179.20;1843.20;;;;;;5070481;28;20020;-69
2021/03/24 02:01:27;;;;;;;14.70;10.88;;;179.20;1868.80;;;;;;5070072;28;20043;-69
2021/03/24 02:03:54;;;;;;;16.13;11.35;;;179.20;1868.80;;;;;;5070485;28;20043;-68
2021/03/24 02:06:40;;;;;;;18.02;12.13;;;179.30;1894.40;;;;;;5070533;28;20025;-66
2021/03/24 02:09:17;;;;;;;17.58;11.70;;;154.50;1920.00;;;;;;5070187;28;20396;-67
2021/03/24 02:12:11;;;;;;;15.05;12.25;;;154.40;1945.60;;;;;;5070285;28;20032;-67
2021/03/24 02:14:52;;;;;;;16.30;12.75;;;154.40;1945.60;;;;;;5070048;28;20048;-66
2021/03/24 02:17:21;;;;;;;15.18;12.48;;;154.30;1971.20;;;;;;5069874;28;20078;-68
2021/03/24 02:19:49;;;;;;;19.17;12.38;;;154.40;1971.20;;;;;;5070339;28;20024;-67
2021/03/24 02:22:23;;;;;;;16.08;12.32;;;154.30;1945.60;;;;;;5073681;28;20047;-67
2021/03/24 02:25:07;;;;;;;12.70;10.20;;;154.30;1971.20;;;;;;5072038;28;20057;-68
2021/03/24 02:27:39;;;;;;;14.38;10.45;;;154.30;1971.20;;;;;;5073931;28;20104;-68
2021/03/24 02:30:23;;;;;;;14.85;10.15;;;154.30;1945.60;;;;;;5073591;28;20032;-71
2021/03/24 02:32:55;;;;;;;13.77;9.45;;;154.30;1945.60;;;;;;5073658;28;20462;-68
2021/03/24 02:35:26;;;;;;;12.63;9.05;;;154.30;1945.60;;;;;;5073795;28;20119;-68
2021/03/24 02:37:54;;;;;;;11.13;8.18;;;154.30;1945.60;;;;;;5073894;28;20425;-69
2021/03/24 02:40:20;;;;;;;14.38;9.10;;;154.30;1920.00;;;;;;5073609;28;20378;-69
2021/03/24 02:42:49;;;;;;;20.13;11.20;;;154.30;1920.00;;;;;;5073353;28;20107;-68
2021/03/24 02:45:19;;;;;;;13.13;9.13;;;154.20;1920.00;;;;;;5073465;28;20490;-70
2021/03/24 02:47:47;;;;;;;14.15;10.55;;;154.30;1920.00;;;;;;5073429;28;20033;-67
2021/03/24 02:50:14;;;;;;;17.13;12.75;;;154.20;1971.20;;;;;;5073659;28;20482;-67
2021/03/24 02:52:40;;;;;;;16.00;11.52;;;153.70;1971.20;;;;;;5073561;28;20032;-68
2021/03/24 02:55:07;;;;;;;23.95;16.63;;;154.30;1996.80;;;;;;5073346;28;20035;-68
2021/03/24 02:57:34;;;;;;;18.90;13.88;;;154.20;1996.80;;;;;;5073294;28;20099;-67
2021/03/24 03:00:00;;;;;;;32.67;19.95;;;154.10;1996.80;;;;;;5073263;28;20379;-67
2021/03/24 03:02:28;;;;;;;19.48;14.70;;;154.20;1971.20;;;;;;5073008;28;20024;-69
2021/03/24 03:05:05;;;;;;;26.63;17.80;;;154.10;1971.20;;;;;;5073393;28;20021;-69
2021/03/24 03:07:30;;;;;;;34.95;22.10;;;154.10;1971.20;;;;;;5073197;28;20032;-68
2021/03/24 03:10:05;;;;;;;42.78;27.55;;;154.10;1971.20;;;;;;5072964;28;20021;-66
2021/03/24 03:12:53;;;;;;;17.63;13.65;;;154.10;1971.20;;;;;;5073117;28;20024;-67
2021/03/24 03:15:29;;;;;;;19.40;14.82;;;154.20;1971.20;;;;;;5072757;28;20483;-69
2021/03/24 03:18:21;;;;;;;29.67;18.88;;;154.30;1945.60;;;;;;5072453;28;20052;-69
2021/03/24 03:20:53;;;;;;;27.58;18.80;;;154.30;1945.60;;;;;;5072767;28;20372;-69
2021/03/24 03:23:22;;;;;;;33.42;22.85;;;154.30;1945.60;;;;;;5072473;28;20032;-68
2021/03/24 03:26:11;;;;;;;25.92;17.58;;;154.30;1945.60;;;;;;5072768;28;20070;-68
2021/03/24 03:28:40;;;;;;;41.17;27.17;;;154.30;1945.60;;;;;;5072494;28;20021;-70
2021/03/24 03:31:12;;;;;;;18.48;14.15;;;154.20;1945.60;;;;;;5072355;28;20016;-69
2021/03/24 03:33:41;;;;;;;44.78;28.52;;;154.20;1945.60;;;;;;5072128;28;20079;-68
2021/03/24 03:36:07;;;;;;;26.02;18.38;;;154.20;1945.60;;;;;;5072527;28;20023;-69
2021/03/24 03:38:35;;;;;;;28.80;18.33;;;154.10;1945.60;;;;;;5072594;28;20027;-68
2021/03/24 03:41:03;;;;;;;16.38;12.32;;;154.20;1920.00;;;;;;5072777;28;20083;-67
2021/03/24 03:43:29;;;;;;;16.77;12.15;;;154.10;1920.00;;;;;;5072273;28;20093;-68
2021/03/24 03:45:58;;;;;;;19.92;12.93;;;154.00;1920.00;;;;;;5072291;28;20522;-68
2021/03/24 03:48:24;;;;;;;16.73;12.40;;;154.10;1920.00;;;;;;5072258;28;20489;-68
2021/03/24 03:50:55;;;;;;;18.17;12.48;;;154.00;1920.00;;;;;;5072361;28;20028;-67
2021/03/24 03:53:42;;;;;;;20.67;13.43;;;154.00;1920.00;;;;;;5072359;28;20099;-67
2021/03/24 03:56:14;;;;;;;17.80;13.10;;;154.00;1920.00;;;;;;5072112;28;20082;-69
2021/03/24 03:58:58;;;;;;;26.63;18.83;;;154.00;1920.00;;;;;;5072287;28;20024;-69
2021/03/24 04:01:29;;;;;;;22.65;15.43;;;154.00;1920.00;;;;;;5072120;28;20036;-70
2021/03/24 04:03:56;;;;;;;16.73;12.88;;;154.10;1894.40;;;;;;5072058;28;20020;-67
2021/03/24 04:07:03;;;;;;;16.48;12.48;;;154.10;1894.40;;;;;;5071954;28;20024;-67
2021/03/24 04:09:28;;;;;;;19.35;13.45;;;154.10;1894.40;;;;;;5028814;28;20053;-67
2021/03/24 04:11:54;;;;;;;17.20;12.43;;;154.00;1894.40;;;;;;5029781;28;20037;-68
2021/03/24 04:14:28;;;;;;;17.13;12.23;;;154.00;1894.40;;;;;;5029759;28;20505;-67
2021/03/24 04:16:54;;;;;;;16.92;12.18;;;154.00;1894.40;;;;;;5029652;28;20048;-67
2021/03/24 04:19:25;;;;;;;17.60;11.98;;;154.00;1894.40;;;;;;5029736;28;20129;-68
2021/03/24 04:21:56;;;;;;;20.05;12.20;;;154.00;1894.40;;;;;;5029671;28;20037;-70
2021/03/24 04:24:25;;;;;;;19.05;12.90;;;154.10;1894.40;;;;;;5029784;28;20043;-70
2021/03/24 04:26:55;;;;;;;23.10;13.73;;;154.00;1894.40;;;;;;5029568;28;20061;-70
2021/03/24 04:29:34;;;;;;;21.05;13.30;;;154.10;1894.40;;;;;;5029599;28;20025;-70
2021/03/24 04:32:03;;;;;;;19.58;13.38;;;154.10;1894.40;;;;;;5029534;28;20117;-70
2021/03/24 04:34:29;;;;;;;17.63;13.10;;;154.00;1894.40;;;;;;5029466;28;20116;-71
2021/03/24 04:37:15;;;;;;;19.35;13.65;;;154.00;1894.40;;;;;;5029304;28;20124;-70
2021/03/24 04:39:45;;;;;;;17.77;13.00;;;154.00;1894.40;;;;;;5029381;28;20531;-69
2021/03/24 04:42:17;;;;;;;21.42;14.27;;;153.90;1894.40;;;;;;5029471;28;20137;-71
2021/03/24 04:44:46;;;;;;;20.05;14.18;;;153.90;1894.40;;;;;;5028408;28;20037;-70
2021/03/24 04:47:25;;;;;;;22.27;15.18;;;154.00;1894.40;;;;;;5067534;28;20040;-70
2021/03/24 04:49:58;;;;;;;25.02;16.77;;;154.00;1894.40;;;;;;5071392;28;20103;-70
2021/03/24 04:52:26;;;;;;;35.55;21.48;;;154.00;1894.40;;;;;;5071183;28;20025;-70
2021/03/24 04:54:55;;;;;;;39.45;22.38;;;154.00;1894.40;;;;;;5071516;28;20052;-69
2021/03/24 04:57:24;;;;;;;37.20;21.40;;;154.00;1894.40;;;;;;5071097;28;20115;-70
2021/03/24 04:59:57;;;;;;;39.63;25.17;;;154.00;1894.40;;;;;;5071087;28;20024;-70
2021/03/24 05:02:27;;;;;;;25.65;17.25;;;154.10;1894.40;;;;;;5070981;28;20482;-68
2021/03/24 05:05:17;;;;;;;23.55;15.32;;;154.10;1868.80;;;;;;5071109;28;20016;-71
2021/03/24 05:07:58;;;;;;;34.22;19.92;;;154.00;1894.40;;;;;;5070579;28;20486;-72
2021/03/24 05:10:30;;;;;;;17.15;13.02;;;154.00;1894.40;;;;;;5070977;28;20035;-72
2021/03/24 05:13:12;;;;;;;21.85;13.75;;;154.00;1894.40;;;;;;5070477;28;20032;-72
2021/03/24 05:15:42;;;;;;;22.70;15.38;;;154.00;1894.40;;;;;;5070702;28;20036;-72
2021/03/24 05:18:13;;;;;;;22.38;15.48;;;154.10;1894.40;;;;;;5070512;28;20391;-72
2021/03/24 05:20:47;;;;;;;21.95;15.27;;;154.10;1920.00;;;;;;5070358;28;20050;-71
2021/03/24 05:23:19;;;;;;;26.33;15.40;;;154.10;1920.00;;;;;;5070676;28;20036;-71
2021/03/24 05:25:51;;;;;;;21.75;15.95;;;154.20;1920.00;;;;;;5070650;28;20017;-71
2021/03/24 05:28:29;;;;;;;23.85;15.63;;;154.10;1920.00;;;;;;5069133;28;20032;-72
2021/03/24 05:31:02;;;;;;;28.58;18.27;;;154.10;1920.00;;;;;;5070487;28;20032;-72
2021/03/24 05:33:32;;;;;;;26.95;17.70;;;154.20;1920.00;;;;;;5070293;28;20501;-71
2021/03/24 05:35:57;;;;;;;31.65;20.05;;;154.20;1920.00;;;;;;5070515;28;20367;-71
2021/03/24 05:38:29;;;;;;;27.33;17.45;;;154.20;1920.00;;;;;;5070699;28;20028;-71
2021/03/24 05:41:18;;;;;;;30.70;17.92;;;154.30;1920.00;;;;;;5070388;28;20483;-72
2021/03/24 05:44:05;;;;;;;35.47;19.75;;;154.30;1894.40;;;;;;5069199;28;20032;-71
2021/03/24 05:47:05;;;;;;;37.95;21.60;;;154.20;1920.00;;;;;;5070641;28;20028;-71
2021/03/24 05:49:40;;;;;;;35.90;20.73;;;154.30;1894.40;;;;;;5070579;28;20108;-71
2021/03/24 05:52:26;;;;;;;47.75;23.55;;;154.30;1894.40;;;;;;5070626;28;20378;-72
2021/03/24 05:55:22;;;;;;;33.60;18.58;;;154.30;1894.40;;;;;;5071080;28;20027;-70
2021/03/24 05:58:27;;;;;;;36.22;20.48;;;154.30;1868.80;;;;;;5074362;28;20047;-71
2021/03/24 06:01:00;;;;;;;30.17;21.13;;;154.30;1868.80;;;;;;5065169;28;20048;-70
2021/03/24 06:03:50;;;;;;;42.78;23.60;;;154.30;1868.80;;;;;;5074399;28;20024;-71
2021/03/24 06:06:22;;;;;;;73.30;38.10;;;154.30;1868.80;;;;;;5074262;28;20078;-73
2021/03/24 06:09:03;;;;;;;74.35;35.53;;;154.30;1894.40;;;;;;5072515;28;20270;-70
2021/03/24 06:11:47;;;;;;;42.63;27.98;;;154.30;1894.40;;;;;;5072710;28;20029;-68
2021/03/24 06:14:47;;;;;;;34.80;21.63;;;154.30;1894.40;;;;;;5074018;28;20466;-71
2021/03/24 06:17:31;;;;;;;55.08;34.05;;;154.30;1894.40;;;;;;5073879;28;20053;-72
2021/03/24 06:20:10;;;;;;;81.70;50.03;;;154.30;1894.40;;;;;;5073760;28;20056;-74
2021/03/24 06:22:53;;;;;;;36.97;27.92;;;154.30;1894.40;;;;;;5073962;28;20110;-73
2021/03/24 06:25:48;;;;;;;44.60;29.88;;;154.40;1894.40;;;;;;5073670;28;20017;-71
2021/03/24 06:28:26;;;;;;;28.05;19.77;;;154.50;1920.00;;;;;;5072771;28;20382;-73
2021/03/24 06:31:25;;;;;;;27.20;19.10;;;154.50;1894.40;;;;;;5073788;28;20031;-73
2021/03/24 06:34:18;;;;;;;40.88;28.15;;;154.50;1920.00;;;;;;5070495;28;20025;-72
2021/03/24 06:37:18;;;;;;;28.35;20.98;;;154.50;1920.00;;;;;;5083527;28;20413;-72
2021/03/24 06:40:05;;;;;;;29.92;20.90;;;154.50;1920.00;;;;;;5082768;28;20020;-73
2021/03/24 06:42:37;;;;;;;27.13;18.35;;;154.50;1920.00;;;;;;5083242;28;20039;-73
2021/03/24 06:45:24;;;;;;;23.15;16.52;;;154.50;1920.00;;;;;;5083132;28;20027;-73
2021/03/24 06:48:07;;;;;;;23.65;17.77;;;179.20;1920.00;;;;;;5082566;28;20352;-74
2021/03/24 06:51:00;;;;;;;23.02;18.27;;;179.20;1920.00;;;;;;5082962;28;20044;-74
2021/03/24 06:53:45;;;;;;;25.67;18.15;;;179.20;1920.00;;;;;;5082552;28;20485;-75
2021/03/24 06:56:48;;;;;;;21.83;17.17;;;179.30;1920.00;;;;;;5083023;28;20040;-75
2021/03/24 06:59:47;;;;;;;28.92;21.35;;;179.40;1920.00;;;;;;5083502;28;20028;-72
2021/03/24 07:02:31;;;;;;;25.95;19.13;;;179.50;1920.00;;;;;;5082898;28;20486;-73
2021/03/24 07:05:18;;;;;;;27.30;21.40;;;179.50;1920.00;;;;;;5082908;28;20069;-73
2021/03/24 07:08:05;;;;;;;27.70;20.17;;;179.60;1894.40;;;;;;5081262;28;20047;-73
2021/03/24 07:10:42;;;;;;;28.58;23.55;;;179.60;1894.40;;;;;;5083113;28;20027;-74
2021/03/24 07:13:46;;;;;;;24.88;19.55;;;179.60;1894.40;;;;;;5082110;28;20017;-74
2021/03/24 07:16:34;;;;;;;30.13;21.80;;;179.60;1868.80;;;;;;5082817;28;20074;-72
2021/03/24 07:19:23;;;;;;;27.80;19.08;;;179.70;1868.80;;;;;;5081132;28;20489;-71
2021/03/24 07:22:08;;;;;;;28.52;20.38;;;179.80;1868.80;;;;;;5082334;28;20032;-71
2021/03/24 07:25:08;;;;;;;27.60;19.80;;;179.90;1868.80;;;;;;5082985;28;20028;-72
2021/03/24 07:27:41;;;;;;;24.92;18.20;;;179.90;1868.80;;;;;;5082732;28;20069;-72
2021/03/24 07:30:43;;;;;;;24.20;17.77;;;180.00;1868.80;;;;;;5081853;28;20025;-72
2021/03/24 07:33:33;;;;;;;25.65;18.08;;;180.00;1868.80;;;;;;5081547;28;20040;-71
2021/03/24 07:36:27;;;;;;;24.83;17.55;;;180.00;1868.80;;;;;;5080582;28;20035;-71
2021/03/24 07:38:59;;;;;;;23.38;17.45;;;180.00;1868.80;;;;;;5082520;28;20106;-70
2021/03/24 07:41:43;;;;;;;21.02;16.15;;;180.00;1868.80;;;;;;5080922;28;20415;-70
2021/03/24 07:44:24;;;;;;;26.20;18.80;;;180.00;1868.80;;;;;;5082028;28;20028;-71
2021/03/24 07:47:11;;;;;;;22.70;17.10;;;180.10;1843.20;;;;;;5082343;28;20039;-71
2021/03/24 07:49:49;;;;;;;20.85;16.55;;;180.10;1843.20;;;;;;5081790;28;20015;-71
2021/03/24 07:52:30;;;;;;;20.75;15.70;;;180.00;1843.20;;;;;;5082194;28;20044;-72
2021/03/24 07:55:16;;;;;;;16.83;13.52;;;180.10;1843.20;;;;;;5082295;28;20016;-72
2021/03/24 07:58:20;;;;;;;21.05;17.80;;;180.10;1817.60;;;;;;5080497;28;20028;-72
2021/03/24 08:01:07;;;;;;;19.63;15.68;;;180.10;1766.40;;;;;;5081193;28;20032;-71
2021/03/24 08:04:23;;;;;;;15.98;12.80;;;204.80;1766.40;;;;;;5081685;28;20024;-72
2021/03/24 08:06:59;;;;;;;17.05;11.73;;;204.90;1766.40;;;;;;5005230;28;20060;-71
2021/03/24 08:09:37;;;;;;;16.70;11.57;;;204.90;1740.80;;;;;;5009907;28;20535;-71
2021/03/24 08:12:24;;;;;;;15.23;11.38;;;205.00;1715.20;;;;;;5010184;28;20054;-72
2021/03/24 08:15:20;;;;;;;17.55;12.10;;;205.00;1689.60;;;;;;5010026;28;20108;-71
2021/03/24 08:18:11;;;;;;;18.38;13.38;;;205.20;1715.20;;;;;;5009427;28;20096;-72
2021/03/24 08:21:22;;;;;;;16.17;12.02;;;205.20;1689.60;;;;;;5009670;28;20030;-71
2021/03/24 08:24:22;;;;;;;17.90;13.27;;;205.10;1664.00;;;;;;5009527;28;20049;-72
2021/03/24 08:26:52;;;;;;;18.52;12.77;;;205.20;1689.60;;;;;;4951415;29;20076;-71
2021/03/24 08:29:44;;;;;;;17.13;13.32;;;205.00;1664.00;;;;;;4949470;29;20121;-75
2021/03/24 08:32:15;;;;;;;23.35;14.00;;;205.00;1689.60;;;;;;4950009;29;20118;-74
2021/03/24 08:35:14;;;;;;;25.50;15.43;;;205.00;1715.20;;;;;;4950099;29;20034;-71
2021/03/24 08:37:51;;;;;;;21.48;14.25;;;205.00;1715.20;;;;;;4949713;29;20082;-72
2021/03/24 08:41:01;;;;;;;22.58;14.05;;;205.00;1715.20;;;;;;4950077;29;20627;-70
2021/03/24 08:43:50;;;;;;;21.27;14.50;;;205.10;1715.20;;;;;;4928348;29;20077;-70
2021/03/24 08:46:27;;;;;;;20.83;14.50;;;205.20;1715.20;;;;;;4916375;29;20498;-72
2021/03/24 08:49:14;;;;;;;19.77;14.48;;;205.30;1689.60;;;;;;4929302;29;20040;-71
2021/03/24 08:51:51;;;;;;;22.08;14.10;;;205.30;1715.20;;;;;;4929430;29;20040;-71
2021/03/24 08:54:20;;;;;;;22.13;14.98;;;205.40;1740.80;;;;;;4930834;29;20024;-72
2021/03/24 08:57:12;;;;;;;20.05;13.95;;;205.50;1689.60;;;;;;4925689;29;20407;-73
2021/03/24 08:59:52;;;;;;;21.80;14.48;;;205.50;1664.00;;;;;;4926400;29;20490;-71
2021/03/24 09:02:40;;;;;;;23.88;15.13;;;205.50;1664.00;;;;;;4927380;29;20031;-78
2021/03/24 09:05:18;;;;;;;22.70;14.63;;;205.50;1638.40;;;;;;4977923;28;20070;-72
2021/03/24 09:08:21;;;;;;;24.27;14.27;;;205.50;1638.40;;;;;;4977362;28;20489;-71
2021/03/24 09:11:17;;;;;;;16.85;11.18;;;205.60;1638.40;;;;;;4977728;28;20101;-75
2021/03/24 09:13:54;;;;;;;16.23;11.50;;;205.60;1612.80;;;;;;4979181;28;20034;-73
2021/03/24 09:16:41;;;;;;;20.50;16.33;;;205.50;1587.20;;;;;;4979949;28;20039;-67
2021/03/24 09:19:52;;;;;;;16.33;11.13;;;205.60;1587.20;;;;;;5040509;28;20051;-74
2021/03/24 09:22:17;;;;;;;15.10;9.65;;;205.60;1561.60;;;;;;5079713;28;20036;-74
2021/03/24 09:25:04;;;;;;;14.43;9.73;;;205.60;1561.60;;;;;;5078679;28;20090;-79
2021/03/24 09:28:20;;;;;;;13.82;10.20;;;205.70;1510.40;;;;;;5079711;28;20020;-71
2021/03/24 09:31:12;;;;;;;15.30;10.27;;;205.70;1536.00;;;;;;5060743;28;20089;-73
2021/03/24 09:34:02;;;;;;;13.98;9.85;;;230.40;1536.00;;;;;;5080348;28;20028;-76
2021/03/24 09:36:48;;;;;;;12.65;8.85;;;230.40;1484.80;;;;;;5078512;28;20451;-75
2021/03/24 09:39:25;;;;;;;14.30;9.20;;;230.50;1484.80;;;;;;5079777;28;20386;-73
2021/03/24 09:42:05;;;;;;;363.63;30.13;;;230.40;1433.60;;;;;;5079417;28;20039;-76
2021/03/24 09:45:05;;;;;;;13.68;9.77;;;230.40;1484.80;;;;;;5077745;28;20020;-74
2021/03/24 09:47:37;;;;;;;13.70;8.55;;;230.40;1459.20;;;;;;5080069;28;20059;-67
2021/03/24 09:50:29;;;;;;;16.25;9.93;;;230.40;1408.00;;;;;;5078715;28;20496;-74
2021/03/24 09:52:57;;;;;;;15.85;9.73;;;230.40;1433.60;;;;;;5055120;28;20630;-72
2021/03/24 09:55:32;;;;;;;14.48;9.02;;;205.70;1459.20;;;;;;5080844;28;20360;-66
2021/03/24 09:58:19;;;;;;;13.57;9.50;;;230.40;1408.00;;;;;;5078605;28;20029;-70
2021/03/24 10:01:11;;;;;;;15.50;7.70;;;230.50;1382.40;;;;;;5080054;28;20032;-70
2021/03/24 10:04:05;;;;;;;14.02;9.80;;;230.60;1280.00;;;;;;5079777;28;20016;-67
2021/03/24 10:06:51;;;;;;;12.68;9.18;;;230.70;1305.60;;;;;;5078610;28;20020;-68
2021/03/24 10:09:42;;;;;;;15.13;9.60;;;230.90;1280.00;;;;;;5078878;28;20466;-67
2021/03/24 10:12:22;;;;;;;18.88;7.88;;;230.90;1331.20;;;;;;5077601;28;20024;-67
2021/03/24 10:15:41;;;;;;;12.98;6.57;;;230.90;1280.00;;;;;;5077816;28;20044;-68
2021/03/24 10:18:35;;;;;;;12.88;8.85;;;231.00;1152.00;;;;;;5017826;28;20077;-66
2021/03/24 10:21:21;;;;;;;10.75;8.02;;;231.10;1356.80;;;;;;4948386;29;20055;-70
2021/03/24 10:23:52;;;;;;;10.65;5.90;;;231.20;1356.80;;;;;;4946434;29;20035;-69
2021/03/24 10:26:23;;;;;;;10.38;6.90;;;231.20;1203.20;;;;;;4949021;29;20068;-68
2021/03/24 10:28:57;;;;;;;16.13;4.70;;;231.30;1228.80;;;;;;4946234;29;20029;-68
2021/03/24 10:31:39;;;;;;;5.07;3.60;;;256.10;1024.00;;;;;;4948660;29;20086;-68
2021/03/24 10:34:19;;;;;;;9.95;4.78;;;256.20;947.20;;;;;;4948839;29;20016;-70
2021/03/24 10:36:56;;;;;;;14.20;5.40;;;256.40;972.80;;;;;;4948318;29;20038;-71
2021/03/24 10:39:55;;;;;;;10.52;4.90;;;256.50;947.20;;;;;;4948750;29;20054;-70
2021/03/24 10:42:57;;;;;;;11.30;4.43;;;256.70;998.40;;;;;;4950809;28;20039;-71
2021/03/24 10:45:37;;;;;;;6.45;4.15;;;256.80;870.40;;;;;;4903177;29;20045;-71
2021/03/24 10:48:31;;;;;;;12.38;5.43;;;256.90;870.40;;;;;;4903674;29;20388;-69
2021/03/24 10:51:12;;;;;;;11.40;4.80;;;256.90;870.40;;;;;;4904690;29;20036;-68
2021/03/24 10:53:38;;;;;;;9.25;4.60;;;256.90;921.60;;;;;;4942896;29;20024;-69
2021/03/24 10:56:27;;;;;;;26.42;10.90;;;281.70;972.80;;;;;;4941596;29;20031;-70
2021/03/24 10:58:58;;;;;;;22.48;8.98;;;281.80;921.60;;;;;;4991525;28;20045;-70
2021/03/24 11:01:41;;;;;;;7.85;5.55;;;281.80;870.40;;;;;;5001200;28;20053;-69
2021/03/24 11:04:48;;;;;;;7.85;5.22;;;256.90;844.80;;;;;;4999538;28;20591;-69
2021/03/24 11:07:32;;;;;;;17.08;8.13;;;281.90;921.60;;;;;;4924844;29;20036;-71
2021/03/24 11:10:25;;;;;;;17.77;8.02;;;282.00;844.80;;;;;;4924620;29;20583;-71
2021/03/24 11:12:57;;;;;;;27.05;12.13;;;282.20;870.40;;;;;;4921103;29;20111;-71
2021/03/24 11:15:26;;;;;;;21.45;10.32;;;282.30;896.00;;;;;;4924416;29;20573;-70
2021/03/24 11:18:02;;;;;;;28.58;18.17;;;282.40;870.40;;;;;;4922582;29;20107;-71
2021/03/24 11:20:46;;;;;;;12.93;8.32;;;282.30;1075.20;;;;;;4923206;29;20028;-68
2021/03/24 11:23:17;;;;;;;23.02;13.95;;;282.30;1100.80;;;;;;5001262;28;20476;-70
2021/03/24 11:25:56;;;;;;;15.43;11.45;;;282.10;1075.20;;;;;;5001492;28;20026;-72
2021/03/24 11:28:31;;;;;;;24.88;16.52;;;282.00;1152.00;;;;;;5000595;28;20038;-69
2021/03/24 11:31:13;;;;;;;16.75;11.80;;;281.90;1152.00;;;;;;4999516;28;20038;-69
2021/03/24 11:33:50;;;;;;;22.45;14.40;;;281.80;1075.20;;;;;;4985178;28;20048;-70
2021/03/24 11:36:27;;;;;;;21.35;12.75;;;281.80;1075.20;;;;;;4996628;28;20037;-70
2021/03/24 11:39:05;;;;;;;16.30;11.85;;;281.80;1075.20;;;;;;5000769;28;20030;-69
2021/03/24 11:41:33;;;;;;;22.08;13.52;;;281.70;1126.40;;;;;;5001001;28;20038;-70
2021/03/24 11:44:14;;;;;;;32.65;19.15;;;281.70;1152.00;;;;;;5039571;28;20124;-70
2021/03/24 11:46:43;;;;;;;20.13;12.60;;;281.80;1152.00;;;;;;5062412;28;20087;-71
2021/03/24 11:49:27;;;;;;;17.15;12.40;;;281.90;1075.20;;;;;;5059796;28;20017;-70
2021/03/24 11:52:16;;;;;;;11.38;8.60;;;282.00;1049.60;;;;;;5061598;28;20029;-71
2021/03/24 11:54:54;;;;;;;31.00;17.75;;;281.90;1152.00;;;;;;5020108;28;20025;-72
2021/03/24 11:57:43;;;;;;;16.05;10.52;;;281.70;1152.00;;;;;;5020331;28;20034;-71
2021/03/24 12:00:09;;;;;;;18.27;12.07;;;281.80;1126.40;;;;;;5019726;28;20026;-72
2021/03/24 12:02:38;;;;;;;18.38;10.80;;;281.70;1075.20;;;;;;5017155;28;20522;-70
2021/03/24 12:05:28;;;;;;;26.92;12.40;;;281.70;947.20;;;;;;5000586;28;20029;-71
2021/03/24 12:08:15;;;;;;;17.80;9.90;;;281.90;896.00;;;;;;5020250;28;20026;-70
2021/03/24 12:10:44;;;;;;;14.00;9.57;;;282.20;844.80;;;;;;5004081;28;20025;-72
2021/03/24 12:13:39;;;;;;;23.00;11.82;;;282.30;793.60;;;;;;5016696;28;20025;-71
2021/03/24 12:16:13;;;;;;;20.05;10.02;;;307.20;844.80;;;;;;4931725;29;20491;-72
2021/03/24 12:18:56;;;;;;;12.65;7.32;;;307.40;742.40;;;;;;4930888;29;20055;-73
2021/03/24 12:21:32;;;;;;;17.38;10.18;;;307.50;716.80;;;;;;4931684;29;20048;-71
2021/03/24 12:24:04;;;;;;;27.05;13.23;;;307.70;665.60;;;;;;4930044;29;20028;-71
2021/03/24 12:26:35;;;;;;;33.08;12.65;;;307.70;691.20;;;;;;4930869;29;20152;-72
2021/03/24 12:29:26;;;;;;;16.98;7.20;;;307.90;716.80;;;;;;4931728;29;20028;-71
2021/03/24 12:32:05;;;;;;;14.50;7.60;;;308.00;691.20;;;;;;4963999;28;20038;-71
2021/03/24 12:34:52;;;;;;;42.95;20.30;;;308.10;665.60;;;;;;4986280;28;20762;-71
2021/03/24 12:37:33;;;;;;;14.73;8.70;;;333.00;742.40;;;;;;4987760;28;20457;-71
2021/03/24 12:40:25;;;;;;;32.17;14.82;;;333.30;640.00;;;;;;4988752;28;20073;-71
2021/03/24 12:43:04;;;;;;;30.35;9.90;;;333.60;640.00;;;;;;4985932;28;20084;-72
2021/03/24 12:45:41;;;;;;;22.27;11.82;;;333.70;614.40;;;;;;4988862;28;20125;-72
2021/03/24 12:48:27;;;;;;;10.25;5.95;;;333.60;614.40;;;;;;4988441;28;20030;-71
2021/03/24 12:51:10;;;;;;;30.52;13.77;;;333.50;588.80;;;;;;4986694;28;20438;-72
2021/03/24 12:53:52;;;;;;;18.25;9.65;;;333.50;640.00;;;;;;5058241;28;20038;-72
2021/03/24 12:56:42;;;;;;;13.38;7.57;;;333.50;640.00;;;;;;5058232;28;20016;-71
2021/03/24 12:59:36;;;;;;;20.23;8.73;;;333.50;614.40;;;;;;5060624;28;20013;-71